Flag for Greece

Past Weather in 35°22'22.6"N, 24°28'44.1"E, Greece — Yesterday and Last 2 Weeks

Currently: 79 °F. Scattered clouds. (Weather station: Souda Airport, Greece). See more current weather

Past Weather in 35°22'22.6"N, 24°28'44.1"E — Graph

°F

35°22'22.6"N, 24°28'44.1"E Temperature Yesterday

Maximum temperature yesterday: 81 °F (at 11:20 am)
Minimum temperature yesterday: 68 °F (at 5:50 am)
Average temperature yesterday: 75 °F

High & Low Weather Summary for the Past Weeks

 TemperatureHumidityPressure
High81 °F (May 18, 11:20 am)100% (May 9, 5:20 am)30.07 "Hg (May 9, 5:20 am)
Low55 °F (May 6, 5:50 am)39% (May 7, 11:50 am)29.62 "Hg (May 10, 6:50 am)
Average66 °F74%29.93 "Hg
* Reported May 4 5:20 pm — May 19 5:20 pm, 35°22'22.6"N, 24°28'44.1"E. Weather by CustomWeather, © 2024

Note: Actual official high and low records may vary slightly from our data, if they occured in-between our weather recording intervals... More about our weather records

35°22'22.6"N, 24°28'44.1"E Weather History for the Previous 24 Hours

Scroll right to see more
 ConditionsComfort  
Time TempWeatherWind HumidityBarometerVisibility
5:20 pm
Sun, May 19
79 °FScattered clouds.3 mph48%29.83 "HgN/A
4:20 pm81 °FScattered clouds.3 mph54%29.83 "Hg6 mi
3:50 pm81 °FScattered clouds.5 mph54%29.83 "Hg6 mi
2:50 pm77 °FScattered clouds.6 mph65%29.83 "Hg6 mi
2:20 pm75 °FScattered clouds.10 mph69%29.86 "Hg6 mi
1:50 pm73 °FScattered clouds.12 mph78%29.83 "HgN/A
1:20 pm73 °FScattered clouds.14 mph78%29.83 "HgN/A
12:50 pm75 °FScattered clouds.13 mph74%29.83 "HgN/A
12:20 pm75 °FScattered clouds.14 mph78%29.83 "HgN/A
11:20 am73 °FScattered clouds.12 mph83%29.83 "HgN/A
10:50 am75 °FPassing clouds.10 mph78%29.83 "HgN/A
10:20 am75 °FPassing clouds.9 mph78%29.83 "HgN/A
9:50 am75 °FPassing clouds.5 mph78%29.83 "HgN/A
9:20 am73 °FPassing clouds.3 mph83%29.83 "HgN/A
8:50 am72 °FPassing clouds.6 mph83%29.83 "HgN/A
8:20 am68 °FPassing clouds.5 mph100%29.83 "Hg6 mi
7:50 am66 °FScattered clouds.7 mph100%29.83 "Hg5 mi
7:20 am66 °FFog.6 mph100%29.83 "Hg1 mi
6:50 am66 °FFog.5 mph100%29.83 "Hg1 mi
6:20 am66 °FFog.7 mph100%29.83 "Hg1 mi
5:50 am66 °FFog.13 mph100%29.83 "Hg1 mi
5:20 am68 °FPassing clouds.9 mph94%29.83 "Hg5 mi
4:50 am68 °FPassing clouds.7 mph94%29.83 "HgN/A
4:20 am68 °FPassing clouds.8 mph94%29.83 "HgN/A
3:50 am68 °FPassing clouds.8 mph94%29.83 "HgN/A
3:20 am70 °FPassing clouds.3 mph88%29.83 "HgN/A
2:50 am73 °FPassing clouds.3 mph69%29.83 "HgN/A
2:20 am75 °FPassing clouds.8 mph61%29.83 "HgN/A
1:50 am73 °FPassing clouds.5 mph69%29.83 "HgN/A
1:20 am70 °FPassing clouds.7 mph83%29.86 "HgN/A
12:50 am70 °FPassing clouds.10 mph83%29.86 "HgN/A
12:20 am70 °FPassing clouds.12 mph83%29.89 "HgN/A
11:20 pm
Sat, May 18
70 °FPassing clouds.8 mph83%29.92 "HgN/A
10:50 pm70 °FPassing clouds.9 mph83%29.92 "HgN/A
10:20 pm72 °FPassing clouds.9 mph73%29.92 "HgN/A
9:50 pm72 °FPassing clouds.8 mph73%29.92 "HgN/A
9:20 pm72 °FPassing clouds.9 mph73%29.95 "HgN/A
8:50 pm72 °FPassing clouds.13 mph73%29.95 "HgN/A
8:20 pm73 °FScattered clouds.12 mph69%29.95 "HgN/A
7:50 pm77 °FScattered clouds.8 mph57%29.95 "HgN/A
7:20 pm79 °FScattered clouds.6 mph54%29.95 "HgN/A
6:50 pm79 °FScattered clouds.6 mph54%29.95 "HgN/A
6:20 pm79 °FScattered clouds.12 mph54%29.95 "HgN/A
Weather by CustomWeather, © 2024

See weather overview